sensor_id;sensor_type;location;lat;lon;timestamp;P1;durP1;ratioP1;P2;durP2;ratioP2
4806;SDS011;2417;52.482;13.432;2022-11-20T00:00:26;47.70;;;24.90;;
4806;SDS011;2417;52.482;13.432;2022-11-20T00:02:56;48.50;;;24.50;;
4806;SDS011;2417;52.482;13.432;2022-11-20T00:05:23;45.40;;;24.03;;
4806;SDS011;2417;52.482;13.432;2022-11-20T00:07:51;47.70;;;26.00;;
4806;SDS011;2417;52.482;13.432;2022-11-20T00:10:19;54.90;;;26.80;;
4806;SDS011;2417;52.482;13.432;2022-11-20T00:12:46;47.43;;;22.40;;
4806;SDS011;2417;52.482;13.432;2022-11-20T00:15:14;50.70;;;25.40;;
4806;SDS011;2417;52.482;13.432;2022-11-20T00:17:42;46.93;;;24.90;;
4806;SDS011;2417;52.482;13.432;2022-11-20T00:20:11;46.13;;;25.50;;
4806;SDS011;2417;52.482;13.432;2022-11-20T00:22:39;49.97;;;26.67;;
4806;SDS011;2417;52.482;13.432;2022-11-20T00:25:07;44.40;;;25.10;;
4806;SDS011;2417;52.482;13.432;2022-11-20T00:27:35;45.83;;;24.40;;
4806;SDS011;2417;52.482;13.432;2022-11-20T00:30:03;44.17;;;24.10;;
4806;SDS011;2417;52.482;13.432;2022-11-20T00:32:31;41.20;;;23.40;;
4806;SDS011;2417;52.482;13.432;2022-11-20T00:34:59;45.87;;;24.37;;
4806;SDS011;2417;52.482;13.432;2022-11-20T00:37:28;53.93;;;31.40;;
4806;SDS011;2417;52.482;13.432;2022-11-20T00:39:56;76.50;;;41.50;;
4806;SDS011;2417;52.482;13.432;2022-11-20T00:42:24;51.77;;;29.47;;
4806;SDS011;2417;52.482;13.432;2022-11-20T00:44:52;47.77;;;24.27;;
4806;SDS011;2417;52.482;13.432;2022-11-20T00:47:19;48.80;;;25.47;;
4806;SDS011;2417;52.482;13.432;2022-11-20T00:49:47;42.70;;;23.43;;
4806;SDS011;2417;52.482;13.432;2022-11-20T00:52:15;53.50;;;29.90;;
4806;SDS011;2417;52.482;13.432;2022-11-20T00:54:44;48.77;;;24.87;;
4806;SDS011;2417;52.482;13.432;2022-11-20T00:57:12;54.00;;;26.70;;
4806;SDS011;2417;52.482;13.432;2022-11-20T00:59:39;51.60;;;23.47;;
4806;SDS011;2417;52.482;13.432;2022-11-20T01:02:07;47.97;;;25.50;;
4806;SDS011;2417;52.482;13.432;2022-11-20T01:04:35;46.10;;;23.90;;
4806;SDS011;2417;52.482;13.432;2022-11-20T01:07:02;42.57;;;23.07;;
4806;SDS011;2417;52.482;13.432;2022-11-20T01:09:30;52.80;;;24.53;;
4806;SDS011;2417;52.482;13.432;2022-11-20T01:11:59;43.80;;;23.40;;
4806;SDS011;2417;52.482;13.432;2022-11-20T01:14:27;43.53;;;23.27;;
4806;SDS011;2417;52.482;13.432;2022-11-20T01:16:55;47.30;;;25.87;;
4806;SDS011;2417;52.482;13.432;2022-11-20T01:19:23;46.87;;;25.10;;
4806;SDS011;2417;52.482;13.432;2022-11-20T01:21:52;45.70;;;24.80;;
4806;SDS011;2417;52.482;13.432;2022-11-20T01:24:21;42.20;;;22.97;;
4806;SDS011;2417;52.482;13.432;2022-11-20T01:26:50;50.20;;;25.50;;
4806;SDS011;2417;52.482;13.432;2022-11-20T01:29:20;49.03;;;24.90;;
4806;SDS011;2417;52.482;13.432;2022-11-20T01:31:48;44.80;;;24.17;;
4806;SDS011;2417;52.482;13.432;2022-11-20T01:34:18;52.83;;;26.60;;
4806;SDS011;2417;52.482;13.432;2022-11-20T01:36:47;42.77;;;22.87;;
4806;SDS011;2417;52.482;13.432;2022-11-20T01:39:16;43.83;;;23.83;;
4806;SDS011;2417;52.482;13.432;2022-11-20T01:41:45;47.00;;;25.33;;
4806;SDS011;2417;52.482;13.432;2022-11-20T01:47:27;43.87;;;24.03;;
4806;SDS011;2417;52.482;13.432;2022-11-20T01:49:58;47.23;;;26.80;;
4806;SDS011;2417;52.482;13.432;2022-11-20T01:52:28;44.90;;;23.67;;
4806;SDS011;2417;52.482;13.432;2022-11-20T01:54:59;49.67;;;24.07;;
4806;SDS011;2417;52.482;13.432;2022-11-20T01:57:28;46.93;;;25.20;;
4806;SDS011;2417;52.482;13.432;2022-11-20T01:59:58;48.40;;;26.07;;
4806;SDS011;2417;52.482;13.432;2022-11-20T02:02:39;40.83;;;23.17;;
4806;SDS011;2417;52.482;13.432;2022-11-20T02:05:11;48.83;;;23.50;;
4806;SDS011;2417;52.482;13.432;2022-11-20T02:07:42;42.00;;;22.77;;
4806;SDS011;2417;52.482;13.432;2022-11-20T02:10:10;38.80;;;22.07;;
4806;SDS011;2417;52.482;13.432;2022-11-20T02:12:39;43.90;;;23.60;;
4806;SDS011;2417;52.482;13.432;2022-11-20T02:15:24;42.77;;;23.33;;
4806;SDS011;2417;52.482;13.432;2022-11-20T02:17:57;41.27;;;23.47;;
4806;SDS011;2417;52.482;13.432;2022-11-20T02:20:25;38.30;;;21.50;;
4806;SDS011;2417;52.482;13.432;2022-11-20T02:22:54;37.90;;;21.73;;
4806;SDS011;2417;52.482;13.432;2022-11-20T02:25:24;39.87;;;21.97;;
4806;SDS011;2417;52.482;13.432;2022-11-20T02:27:53;37.60;;;21.90;;
4806;SDS011;2417;52.482;13.432;2022-11-20T02:30:21;58.97;;;30.07;;
4806;SDS011;2417;52.482;13.432;2022-11-20T02:32:50;41.67;;;23.93;;
4806;SDS011;2417;52.482;13.432;2022-11-20T02:38:04;46.57;;;27.27;;
4806;SDS011;2417;52.482;13.432;2022-11-20T02:40:33;39.63;;;23.43;;
4806;SDS011;2417;52.482;13.432;2022-11-20T02:43:01;42.07;;;22.30;;
4806;SDS011;2417;52.482;13.432;2022-11-20T02:45:28;40.53;;;23.13;;
4806;SDS011;2417;52.482;13.432;2022-11-20T02:47:56;42.33;;;23.03;;
4806;SDS011;2417;52.482;13.432;2022-11-20T02:50:24;38.17;;;22.10;;
4806;SDS011;2417;52.482;13.432;2022-11-20T02:52:51;42.73;;;24.00;;
4806;SDS011;2417;52.482;13.432;2022-11-20T02:55:19;42.87;;;23.20;;
4806;SDS011;2417;52.482;13.432;2022-11-20T02:57:48;40.53;;;24.40;;
4806;SDS011;2417;52.482;13.432;2022-11-20T03:00:16;44.90;;;25.83;;
4806;SDS011;2417;52.482;13.432;2022-11-20T03:02:46;40.57;;;23.87;;
4806;SDS011;2417;52.482;13.432;2022-11-20T03:05:15;45.10;;;24.00;;
4806;SDS011;2417;52.482;13.432;2022-11-20T03:07:43;37.77;;;22.13;;
4806;SDS011;2417;52.482;13.432;2022-11-20T03:10:11;41.13;;;24.10;;
4806;SDS011;2417;52.482;13.432;2022-11-20T03:12:39;42.53;;;24.40;;
4806;SDS011;2417;52.482;13.432;2022-11-20T03:15:09;38.80;;;23.17;;
4806;SDS011;2417;52.482;13.432;2022-11-20T03:17:37;43.10;;;24.50;;
4806;SDS011;2417;52.482;13.432;2022-11-20T03:20:05;46.13;;;26.77;;
4806;SDS011;2417;52.482;13.432;2022-11-20T03:22:33;44.10;;;24.70;;
4806;SDS011;2417;52.482;13.432;2022-11-20T03:25:01;36.33;;;22.20;;
4806;SDS011;2417;52.482;13.432;2022-11-20T03:27:31;47.03;;;26.40;;
4806;SDS011;2417;52.482;13.432;2022-11-20T03:29:59;46.60;;;24.40;;
4806;SDS011;2417;52.482;13.432;2022-11-20T03:32:28;40.33;;;24.23;;
4806;SDS011;2417;52.482;13.432;2022-11-20T03:34:57;42.80;;;23.77;;
4806;SDS011;2417;52.482;13.432;2022-11-20T03:37:24;40.30;;;22.50;;
4806;SDS011;2417;52.482;13.432;2022-11-20T03:39:52;42.13;;;25.53;;
4806;SDS011;2417;52.482;13.432;2022-11-20T03:42:20;51.63;;;24.00;;
4806;SDS011;2417;52.482;13.432;2022-11-20T03:45:05;42.60;;;24.00;;
4806;SDS011;2417;52.482;13.432;2022-11-20T03:47:34;40.03;;;22.93;;
4806;SDS011;2417;52.482;13.432;2022-11-20T03:50:03;43.80;;;24.87;;
4806;SDS011;2417;52.482;13.432;2022-11-20T03:52:31;41.27;;;24.10;;
4806;SDS011;2417;52.482;13.432;2022-11-20T03:54:58;42.20;;;24.30;;
4806;SDS011;2417;52.482;13.432;2022-11-20T03:57:26;41.80;;;23.93;;
4806;SDS011;2417;52.482;13.432;2022-11-20T03:59:54;39.13;;;21.70;;
4806;SDS011;2417;52.482;13.432;2022-11-20T04:02:41;38.90;;;22.80;;
4806;SDS011;2417;52.482;13.432;2022-11-20T04:05:09;37.33;;;21.00;;
4806;SDS011;2417;52.482;13.432;2022-11-20T04:07:37;33.83;;;20.30;;
4806;SDS011;2417;52.482;13.432;2022-11-20T04:10:05;38.17;;;21.57;;
4806;SDS011;2417;52.482;13.432;2022-11-20T04:12:32;36.43;;;21.70;;
4806;SDS011;2417;52.482;13.432;2022-11-20T04:15:01;36.00;;;21.60;;
4806;SDS011;2417;52.482;13.432;2022-11-20T04:17:28;38.30;;;21.80;;
4806;SDS011;2417;52.482;13.432;2022-11-20T04:19:57;39.47;;;23.60;;
4806;SDS011;2417;52.482;13.432;2022-11-20T04:22:25;35.80;;;21.30;;
4806;SDS011;2417;52.482;13.432;2022-11-20T04:24:53;36.97;;;21.57;;
4806;SDS011;2417;52.482;13.432;2022-11-20T04:27:21;34.93;;;21.70;;
4806;SDS011;2417;52.482;13.432;2022-11-20T04:29:48;35.97;;;21.30;;
4806;SDS011;2417;52.482;13.432;2022-11-20T04:32:16;35.97;;;22.00;;
4806;SDS011;2417;52.482;13.432;2022-11-20T04:34:44;37.67;;;22.83;;
4806;SDS011;2417;52.482;13.432;2022-11-20T04:37:13;38.90;;;23.37;;
4806;SDS011;2417;52.482;13.432;2022-11-20T04:39:41;38.30;;;22.53;;
4806;SDS011;2417;52.482;13.432;2022-11-20T04:42:09;36.80;;;22.57;;
4806;SDS011;2417;52.482;13.432;2022-11-20T04:44:56;37.17;;;22.57;;
4806;SDS011;2417;52.482;13.432;2022-11-20T04:47:24;37.47;;;22.50;;
4806;SDS011;2417;52.482;13.432;2022-11-20T04:49:52;38.43;;;23.47;;
4806;SDS011;2417;52.482;13.432;2022-11-20T04:52:21;40.07;;;24.17;;
4806;SDS011;2417;52.482;13.432;2022-11-20T04:54:49;37.07;;;21.90;;
4806;SDS011;2417;52.482;13.432;2022-11-20T04:57:19;38.03;;;22.20;;
4806;SDS011;2417;52.482;13.432;2022-11-20T04:59:47;41.67;;;21.97;;
4806;SDS011;2417;52.482;13.432;2022-11-20T05:02:15;40.90;;;23.60;;
4806;SDS011;2417;52.482;13.432;2022-11-20T05:04:43;38.00;;;22.00;;
4806;SDS011;2417;52.482;13.432;2022-11-20T05:07:11;42.23;;;22.37;;
4806;SDS011;2417;52.482;13.432;2022-11-20T05:09:40;34.30;;;20.30;;
4806;SDS011;2417;52.482;13.432;2022-11-20T05:12:08;37.67;;;23.23;;
4806;SDS011;2417;52.482;13.432;2022-11-20T05:14:36;33.83;;;21.73;;
4806;SDS011;2417;52.482;13.432;2022-11-20T05:17:04;35.10;;;21.40;;
4806;SDS011;2417;52.482;13.432;2022-11-20T05:19:32;36.57;;;22.30;;
4806;SDS011;2417;52.482;13.432;2022-11-20T05:22:00;38.77;;;23.13;;
4806;SDS011;2417;52.482;13.432;2022-11-20T05:24:28;36.10;;;22.57;;
4806;SDS011;2417;52.482;13.432;2022-11-20T05:26:57;41.10;;;22.30;;
4806;SDS011;2417;52.482;13.432;2022-11-20T05:29:24;37.47;;;22.40;;
4806;SDS011;2417;52.482;13.432;2022-11-20T05:31:52;38.63;;;22.10;;
4806;SDS011;2417;52.482;13.432;2022-11-20T05:34:20;39.60;;;22.87;;
4806;SDS011;2417;52.482;13.432;2022-11-20T05:36:48;42.37;;;21.10;;
4806;SDS011;2417;52.482;13.432;2022-11-20T05:39:16;37.77;;;23.70;;
4806;SDS011;2417;52.482;13.432;2022-11-20T05:41:44;41.33;;;23.57;;
4806;SDS011;2417;52.482;13.432;2022-11-20T05:44:13;37.57;;;22.80;;
4806;SDS011;2417;52.482;13.432;2022-11-20T05:46:41;41.17;;;23.33;;
4806;SDS011;2417;52.482;13.432;2022-11-20T05:49:08;36.80;;;22.30;;
4806;SDS011;2417;52.482;13.432;2022-11-20T05:51:36;34.53;;;21.10;;
4806;SDS011;2417;52.482;13.432;2022-11-20T05:54:04;38.23;;;22.50;;
4806;SDS011;2417;52.482;13.432;2022-11-20T05:56:32;41.73;;;23.23;;
4806;SDS011;2417;52.482;13.432;2022-11-20T05:59:00;38.30;;;22.07;;
4806;SDS011;2417;52.482;13.432;2022-11-20T06:01:29;42.97;;;22.93;;
4806;SDS011;2417;52.482;13.432;2022-11-20T06:03:56;38.80;;;23.10;;
4806;SDS011;2417;52.482;13.432;2022-11-20T06:06:24;39.60;;;22.77;;
4806;SDS011;2417;52.482;13.432;2022-11-20T06:08:52;36.87;;;21.60;;
4806;SDS011;2417;52.482;13.432;2022-11-20T06:11:21;37.90;;;22.30;;
4806;SDS011;2417;52.482;13.432;2022-11-20T06:13:49;36.43;;;21.70;;
4806;SDS011;2417;52.482;13.432;2022-11-20T06:16:18;34.20;;;21.60;;
4806;SDS011;2417;52.482;13.432;2022-11-20T06:18:48;38.23;;;21.10;;
4806;SDS011;2417;52.482;13.432;2022-11-20T06:21:17;36.10;;;21.20;;
4806;SDS011;2417;52.482;13.432;2022-11-20T06:23:45;36.23;;;21.00;;
4806;SDS011;2417;52.482;13.432;2022-11-20T06:26:14;38.57;;;21.77;;
4806;SDS011;2417;52.482;13.432;2022-11-20T06:28:43;35.83;;;20.80;;
4806;SDS011;2417;52.482;13.432;2022-11-20T06:31:11;35.90;;;21.33;;
4806;SDS011;2417;52.482;13.432;2022-11-20T06:33:39;37.90;;;21.63;;
4806;SDS011;2417;52.482;13.432;2022-11-20T06:36:09;38.13;;;22.00;;
4806;SDS011;2417;52.482;13.432;2022-11-20T06:38:37;32.73;;;20.70;;
4806;SDS011;2417;52.482;13.432;2022-11-20T06:41:06;33.33;;;20.33;;
4806;SDS011;2417;52.482;13.432;2022-11-20T06:43:34;37.10;;;21.03;;
4806;SDS011;2417;52.482;13.432;2022-11-20T06:46:01;34.00;;;21.33;;
4806;SDS011;2417;52.482;13.432;2022-11-20T06:48:30;33.30;;;19.30;;
4806;SDS011;2417;52.482;13.432;2022-11-20T06:50:57;39.33;;;21.20;;
4806;SDS011;2417;52.482;13.432;2022-11-20T06:53:27;36.47;;;22.10;;
4806;SDS011;2417;52.482;13.432;2022-11-20T06:55:55;35.67;;;21.17;;
4806;SDS011;2417;52.482;13.432;2022-11-20T06:58:23;37.63;;;21.73;;
4806;SDS011;2417;52.482;13.432;2022-11-20T07:00:51;37.67;;;20.50;;
4806;SDS011;2417;52.482;13.432;2022-11-20T07:03:19;34.90;;;20.57;;
4806;SDS011;2417;52.482;13.432;2022-11-20T07:05:47;32.27;;;19.73;;
4806;SDS011;2417;52.482;13.432;2022-11-20T07:08:14;34.57;;;20.67;;
4806;SDS011;2417;52.482;13.432;2022-11-20T07:10:44;34.87;;;20.63;;
4806;SDS011;2417;52.482;13.432;2022-11-20T07:13:11;37.90;;;19.30;;
4806;SDS011;2417;52.482;13.432;2022-11-20T07:15:39;33.90;;;19.30;;
4806;SDS011;2417;52.482;13.432;2022-11-20T07:18:07;32.50;;;18.87;;
4806;SDS011;2417;52.482;13.432;2022-11-20T07:20:35;38.27;;;18.70;;
4806;SDS011;2417;52.482;13.432;2022-11-20T07:23:03;31.53;;;19.67;;
4806;SDS011;2417;52.482;13.432;2022-11-20T07:25:31;30.10;;;18.20;;
4806;SDS011;2417;52.482;13.432;2022-11-20T07:28:00;33.13;;;18.50;;
4806;SDS011;2417;52.482;13.432;2022-11-20T07:30:29;32.10;;;19.10;;
4806;SDS011;2417;52.482;13.432;2022-11-20T07:32:57;30.00;;;19.20;;
4806;SDS011;2417;52.482;13.432;2022-11-20T07:35:24;31.57;;;18.53;;
4806;SDS011;2417;52.482;13.432;2022-11-20T07:37:52;29.93;;;18.40;;
4806;SDS011;2417;52.482;13.432;2022-11-20T07:40:20;31.80;;;19.00;;
4806;SDS011;2417;52.482;13.432;2022-11-20T07:42:48;28.13;;;17.50;;
4806;SDS011;2417;52.482;13.432;2022-11-20T07:45:17;30.50;;;17.43;;
4806;SDS011;2417;52.482;13.432;2022-11-20T07:47:46;28.40;;;18.13;;
4806;SDS011;2417;52.482;13.432;2022-11-20T07:50:14;27.33;;;17.83;;
4806;SDS011;2417;52.482;13.432;2022-11-20T07:52:42;28.33;;;18.57;;
4806;SDS011;2417;52.482;13.432;2022-11-20T07:55:10;30.13;;;18.57;;
4806;SDS011;2417;52.482;13.432;2022-11-20T07:57:38;33.63;;;20.70;;
4806;SDS011;2417;52.482;13.432;2022-11-20T08:00:06;30.27;;;18.50;;
4806;SDS011;2417;52.482;13.432;2022-11-20T08:02:40;28.37;;;18.37;;
4806;SDS011;2417;52.482;13.432;2022-11-20T08:05:08;29.43;;;18.40;;
4806;SDS011;2417;52.482;13.432;2022-11-20T08:07:36;31.20;;;19.30;;
4806;SDS011;2417;52.482;13.432;2022-11-20T08:10:05;30.80;;;18.43;;
4806;SDS011;2417;52.482;13.432;2022-11-20T08:12:33;32.03;;;18.03;;
4806;SDS011;2417;52.482;13.432;2022-11-20T08:15:18;30.07;;;18.20;;
4806;SDS011;2417;52.482;13.432;2022-11-20T08:17:48;30.20;;;18.10;;
4806;SDS011;2417;52.482;13.432;2022-11-20T08:20:36;31.97;;;18.93;;
4806;SDS011;2417;52.482;13.432;2022-11-20T08:23:04;31.63;;;18.80;;
4806;SDS011;2417;52.482;13.432;2022-11-20T08:25:33;30.93;;;19.13;;
4806;SDS011;2417;52.482;13.432;2022-11-20T08:28:02;31.20;;;18.70;;
4806;SDS011;2417;52.482;13.432;2022-11-20T08:30:45;27.93;;;17.73;;
4806;SDS011;2417;52.482;13.432;2022-11-20T08:33:14;30.77;;;18.67;;
4806;SDS011;2417;52.482;13.432;2022-11-20T08:35:43;30.03;;;19.23;;
4806;SDS011;2417;52.482;13.432;2022-11-20T08:38:11;34.30;;;18.80;;
4806;SDS011;2417;52.482;13.432;2022-11-20T08:40:39;35.40;;;19.03;;
4806;SDS011;2417;52.482;13.432;2022-11-20T08:43:07;31.37;;;17.47;;
4806;SDS011;2417;52.482;13.432;2022-11-20T08:45:34;27.53;;;17.33;;
4806;SDS011;2417;52.482;13.432;2022-11-20T08:48:02;28.37;;;18.37;;
4806;SDS011;2417;52.482;13.432;2022-11-20T08:53:03;29.70;;;18.10;;
4806;SDS011;2417;52.482;13.432;2022-11-20T08:55:31;31.40;;;17.70;;
4806;SDS011;2417;52.482;13.432;2022-11-20T08:58:02;28.53;;;17.90;;
4806;SDS011;2417;52.482;13.432;2022-11-20T09:00:31;34.47;;;18.37;;
4806;SDS011;2417;52.482;13.432;2022-11-20T09:02:59;33.53;;;18.63;;
4806;SDS011;2417;52.482;13.432;2022-11-20T09:05:27;32.37;;;18.73;;
4806;SDS011;2417;52.482;13.432;2022-11-20T09:07:55;28.90;;;17.60;;
4806;SDS011;2417;52.482;13.432;2022-11-20T09:10:24;30.63;;;18.30;;
4806;SDS011;2417;52.482;13.432;2022-11-20T09:12:53;32.90;;;18.33;;
4806;SDS011;2417;52.482;13.432;2022-11-20T09:15:21;30.60;;;18.40;;
4806;SDS011;2417;52.482;13.432;2022-11-20T09:17:52;27.03;;;16.87;;
4806;SDS011;2417;52.482;13.432;2022-11-20T09:20:20;27.00;;;17.10;;
4806;SDS011;2417;52.482;13.432;2022-11-20T09:22:49;26.77;;;17.30;;
4806;SDS011;2417;52.482;13.432;2022-11-20T09:25:16;29.40;;;16.80;;
4806;SDS011;2417;52.482;13.432;2022-11-20T09:27:45;27.13;;;16.87;;
4806;SDS011;2417;52.482;13.432;2022-11-20T09:30:13;28.77;;;17.73;;
4806;SDS011;2417;52.482;13.432;2022-11-20T09:32:41;26.53;;;16.30;;
4806;SDS011;2417;52.482;13.432;2022-11-20T09:35:09;29.87;;;17.40;;
4806;SDS011;2417;52.482;13.432;2022-11-20T09:37:38;28.60;;;17.30;;
4806;SDS011;2417;52.482;13.432;2022-11-20T09:40:06;27.73;;;17.70;;
4806;SDS011;2417;52.482;13.432;2022-11-20T09:42:36;28.90;;;17.20;;
4806;SDS011;2417;52.482;13.432;2022-11-20T09:45:17;27.33;;;17.13;;
4806;SDS011;2417;52.482;13.432;2022-11-20T09:47:50;28.07;;;17.57;;
4806;SDS011;2417;52.482;13.432;2022-11-20T09:50:23;29.43;;;17.87;;
4806;SDS011;2417;52.482;13.432;2022-11-20T09:52:56;30.47;;;18.37;;
4806;SDS011;2417;52.482;13.432;2022-11-20T09:55:26;27.73;;;17.43;;
4806;SDS011;2417;52.482;13.432;2022-11-20T09:57:56;28.57;;;17.83;;
4806;SDS011;2417;52.482;13.432;2022-11-20T10:00:26;28.57;;;17.57;;
4806;SDS011;2417;52.482;13.432;2022-11-20T10:02:55;24.53;;;16.23;;
4806;SDS011;2417;52.482;13.432;2022-11-20T10:05:27;28.20;;;16.10;;
4806;SDS011;2417;52.482;13.432;2022-11-20T10:07:59;25.60;;;16.90;;
4806;SDS011;2417;52.482;13.432;2022-11-20T10:10:31;32.47;;;16.60;;
4806;SDS011;2417;52.482;13.432;2022-11-20T10:13:17;29.40;;;18.03;;
4806;SDS011;2417;52.482;13.432;2022-11-20T10:15:52;29.00;;;17.43;;
4806;SDS011;2417;52.482;13.432;2022-11-20T10:18:23;28.60;;;16.63;;
4806;SDS011;2417;52.482;13.432;2022-11-20T10:20:56;29.40;;;17.60;;
4806;SDS011;2417;52.482;13.432;2022-11-20T10:23:33;28.80;;;17.17;;
4806;SDS011;2417;52.482;13.432;2022-11-20T10:26:13;28.20;;;17.23;;
4806;SDS011;2417;52.482;13.432;2022-11-20T10:28:46;27.70;;;16.00;;
4806;SDS011;2417;52.482;13.432;2022-11-20T10:31:27;32.03;;;16.10;;
4806;SDS011;2417;52.482;13.432;2022-11-20T10:33:56;27.60;;;17.07;;
4806;SDS011;2417;52.482;13.432;2022-11-20T10:36:47;27.00;;;16.20;;
4806;SDS011;2417;52.482;13.432;2022-11-20T10:39:17;29.73;;;17.03;;
4806;SDS011;2417;52.482;13.432;2022-11-20T10:41:48;29.17;;;17.13;;
4806;SDS011;2417;52.482;13.432;2022-11-20T10:44:17;31.43;;;18.17;;
4806;SDS011;2417;52.482;13.432;2022-11-20T10:47:12;27.20;;;17.40;;
4806;SDS011;2417;52.482;13.432;2022-11-20T10:49:40;30.80;;;18.17;;
4806;SDS011;2417;52.482;13.432;2022-11-20T10:52:10;32.03;;;18.70;;
4806;SDS011;2417;52.482;13.432;2022-11-20T10:54:40;30.77;;;19.20;;
4806;SDS011;2417;52.482;13.432;2022-11-20T10:57:14;28.47;;;18.40;;
4806;SDS011;2417;52.482;13.432;2022-11-20T10:59:48;30.73;;;18.47;;
4806;SDS011;2417;52.482;13.432;2022-11-20T11:02:20;28.50;;;18.13;;
4806;SDS011;2417;52.482;13.432;2022-11-20T11:04:49;27.70;;;17.80;;
4806;SDS011;2417;52.482;13.432;2022-11-20T11:07:20;29.33;;;18.20;;
4806;SDS011;2417;52.482;13.432;2022-11-20T11:09:49;27.30;;;17.07;;
4806;SDS011;2417;52.482;13.432;2022-11-20T11:12:17;31.33;;;17.73;;
4806;SDS011;2417;52.482;13.432;2022-11-20T11:14:47;30.10;;;18.33;;
4806;SDS011;2417;52.482;13.432;2022-11-20T11:17:23;28.83;;;17.17;;
4806;SDS011;2417;52.482;13.432;2022-11-20T11:20:00;25.87;;;16.47;;
4806;SDS011;2417;52.482;13.432;2022-11-20T11:22:28;30.90;;;17.10;;
4806;SDS011;2417;52.482;13.432;2022-11-20T11:24:56;33.23;;;16.77;;
4806;SDS011;2417;52.482;13.432;2022-11-20T11:27:24;25.40;;;15.70;;
4806;SDS011;2417;52.482;13.432;2022-11-20T11:30:01;29.43;;;17.30;;
4806;SDS011;2417;52.482;13.432;2022-11-20T11:32:30;27.23;;;16.47;;
4806;SDS011;2417;52.482;13.432;2022-11-20T11:34:59;28.80;;;16.97;;
4806;SDS011;2417;52.482;13.432;2022-11-20T11:37:27;29.00;;;17.17;;
4806;SDS011;2417;52.482;13.432;2022-11-20T11:40:00;28.03;;;16.17;;
4806;SDS011;2417;52.482;13.432;2022-11-20T11:42:50;28.70;;;16.03;;
4806;SDS011;2417;52.482;13.432;2022-11-20T11:45:50;25.07;;;15.50;;
4806;SDS011;2417;52.482;13.432;2022-11-20T11:48:18;26.77;;;16.13;;
4806;SDS011;2417;52.482;13.432;2022-11-20T11:50:48;25.87;;;15.87;;
4806;SDS011;2417;52.482;13.432;2022-11-20T11:53:16;27.03;;;15.17;;
4806;SDS011;2417;52.482;13.432;2022-11-20T11:55:47;24.63;;;15.40;;
4806;SDS011;2417;52.482;13.432;2022-11-20T11:58:19;25.97;;;15.20;;
4806;SDS011;2417;52.482;13.432;2022-11-20T12:00:51;26.13;;;15.67;;
4806;SDS011;2417;52.482;13.432;2022-11-20T12:03:24;27.77;;;16.00;;
4806;SDS011;2417;52.482;13.432;2022-11-20T12:05:57;27.10;;;16.40;;
4806;SDS011;2417;52.482;13.432;2022-11-20T12:08:27;27.50;;;16.80;;
4806;SDS011;2417;52.482;13.432;2022-11-20T12:10:56;27.30;;;16.83;;
4806;SDS011;2417;52.482;13.432;2022-11-20T12:13:27;29.67;;;17.70;;
4806;SDS011;2417;52.482;13.432;2022-11-20T12:15:55;33.53;;;18.50;;
4806;SDS011;2417;52.482;13.432;2022-11-20T12:18:24;31.13;;;18.80;;
4806;SDS011;2417;52.482;13.432;2022-11-20T12:20:56;32.60;;;18.97;;
4806;SDS011;2417;52.482;13.432;2022-11-20T12:23:27;32.23;;;18.90;;
4806;SDS011;2417;52.482;13.432;2022-11-20T12:25:56;36.40;;;19.80;;
4806;SDS011;2417;52.482;13.432;2022-11-20T12:28:35;29.40;;;18.40;;
4806;SDS011;2417;52.482;13.432;2022-11-20T12:31:12;31.37;;;18.03;;
4806;SDS011;2417;52.482;13.432;2022-11-20T12:33:54;32.60;;;19.40;;
4806;SDS011;2417;52.482;13.432;2022-11-20T12:36:27;30.77;;;17.17;;
4806;SDS011;2417;52.482;13.432;2022-11-20T12:41:44;34.30;;;16.87;;
4806;SDS011;2417;52.482;13.432;2022-11-20T12:44:33;26.40;;;15.53;;
4806;SDS011;2417;52.482;13.432;2022-11-20T12:47:23;29.33;;;15.33;;
4806;SDS011;2417;52.482;13.432;2022-11-20T12:49:59;27.20;;;15.90;;
4806;SDS011;2417;52.482;13.432;2022-11-20T12:52:34;28.30;;;16.03;;
4806;SDS011;2417;52.482;13.432;2022-11-20T12:57:53;25.73;;;14.00;;
4806;SDS011;2417;52.482;13.432;2022-11-20T13:00:22;24.63;;;14.10;;
4806;SDS011;2417;52.482;13.432;2022-11-20T13:05:40;17.20;;;10.67;;
4806;SDS011;2417;52.482;13.432;2022-11-20T13:08:12;15.90;;;10.20;;
4806;SDS011;2417;52.482;13.432;2022-11-20T13:10:43;19.47;;;11.20;;
4806;SDS011;2417;52.482;13.432;2022-11-20T13:13:14;18.97;;;10.80;;
4806;SDS011;2417;52.482;13.432;2022-11-20T13:15:45;18.37;;;11.23;;
4806;SDS011;2417;52.482;13.432;2022-11-20T13:18:16;15.33;;;10.00;;
4806;SDS011;2417;52.482;13.432;2022-11-20T13:20:46;17.63;;;10.90;;
4806;SDS011;2417;52.482;13.432;2022-11-20T13:23:23;18.73;;;11.23;;
4806;SDS011;2417;52.482;13.432;2022-11-20T13:26:02;19.33;;;11.03;;
4806;SDS011;2417;52.482;13.432;2022-11-20T13:28:30;21.77;;;11.47;;
4806;SDS011;2417;52.482;13.432;2022-11-20T13:30:57;17.70;;;11.37;;
4806;SDS011;2417;52.482;13.432;2022-11-20T13:33:28;21.07;;;12.40;;
4806;SDS011;2417;52.482;13.432;2022-11-20T13:35:59;21.63;;;13.90;;
4806;SDS011;2417;52.482;13.432;2022-11-20T13:38:39;22.23;;;11.23;;
4806;SDS011;2417;52.482;13.432;2022-11-20T13:41:08;18.70;;;12.00;;
4806;SDS011;2417;52.482;13.432;2022-11-20T13:43:51;20.07;;;12.03;;
4806;SDS011;2417;52.482;13.432;2022-11-20T13:46:19;21.00;;;11.30;;
4806;SDS011;2417;52.482;13.432;2022-11-20T13:48:51;16.93;;;9.80;;
4806;SDS011;2417;52.482;13.432;2022-11-20T13:51:28;17.00;;;10.27;;
4806;SDS011;2417;52.482;13.432;2022-11-20T13:54:06;17.80;;;10.87;;
4806;SDS011;2417;52.482;13.432;2022-11-20T13:56:37;19.77;;;10.97;;
4806;SDS011;2417;52.482;13.432;2022-11-20T13:59:09;19.00;;;10.60;;
4806;SDS011;2417;52.482;13.432;2022-11-20T14:01:41;17.30;;;10.43;;
4806;SDS011;2417;52.482;13.432;2022-11-20T14:04:12;20.40;;;11.80;;
4806;SDS011;2417;52.482;13.432;2022-11-20T14:06:44;18.77;;;10.47;;
4806;SDS011;2417;52.482;13.432;2022-11-20T14:09:13;18.40;;;10.30;;
4806;SDS011;2417;52.482;13.432;2022-11-20T14:11:51;19.10;;;11.17;;
4806;SDS011;2417;52.482;13.432;2022-11-20T14:14:22;21.40;;;10.37;;
4806;SDS011;2417;52.482;13.432;2022-11-20T14:16:51;18.53;;;11.30;;
4806;SDS011;2417;52.482;13.432;2022-11-20T14:19:23;18.10;;;10.43;;
4806;SDS011;2417;52.482;13.432;2022-11-20T14:21:54;17.43;;;9.70;;
4806;SDS011;2417;52.482;13.432;2022-11-20T14:24:23;19.50;;;10.90;;
4806;SDS011;2417;52.482;13.432;2022-11-20T14:26:51;18.37;;;9.80;;
4806;SDS011;2417;52.482;13.432;2022-11-20T14:29:19;17.60;;;9.77;;
4806;SDS011;2417;52.482;13.432;2022-11-20T14:31:51;19.10;;;11.27;;
4806;SDS011;2417;52.482;13.432;2022-11-20T14:34:21;20.00;;;10.63;;
4806;SDS011;2417;52.482;13.432;2022-11-20T14:36:50;16.93;;;9.87;;
4806;SDS011;2417;52.482;13.432;2022-11-20T14:39:21;17.47;;;10.20;;
4806;SDS011;2417;52.482;13.432;2022-11-20T14:41:50;17.27;;;10.13;;
4806;SDS011;2417;52.482;13.432;2022-11-20T14:44:18;21.60;;;11.63;;
4806;SDS011;2417;52.482;13.432;2022-11-20T14:46:49;19.93;;;11.60;;
4806;SDS011;2417;52.482;13.432;2022-11-20T14:49:17;16.80;;;10.47;;
4806;SDS011;2417;52.482;13.432;2022-11-20T14:51:45;20.07;;;10.63;;
4806;SDS011;2417;52.482;13.432;2022-11-20T14:54:14;15.87;;;9.93;;
4806;SDS011;2417;52.482;13.432;2022-11-20T14:56:43;16.70;;;9.90;;
4806;SDS011;2417;52.482;13.432;2022-11-20T14:59:22;20.33;;;11.30;;
4806;SDS011;2417;52.482;13.432;2022-11-20T15:01:54;15.10;;;10.40;;
4806;SDS011;2417;52.482;13.432;2022-11-20T15:04:22;18.70;;;11.03;;
4806;SDS011;2417;52.482;13.432;2022-11-20T15:06:51;21.30;;;11.17;;
4806;SDS011;2417;52.482;13.432;2022-11-20T15:09:20;19.13;;;10.90;;